Welton, Iowa
Current Conditions -  °F | °C
As of 11:55 PM on Thursday 27 Nov 2014 (Local Time) from KCWI Reporting Station
Overcast Overcast  
Wind Chill: -15°   Ceiling: 9000
Heat Index: -11°   Visibility: 10mi
Dew Point: -15°   Wind: 5mph
Humidity: 73%   Direction: 240°WSW
Pressure: 30.41"   Gusts: NA
Location:  41.91°N, 90.6°W
Report Text: KCWI 280555Z AUTO 24004KT 10SM FEW075 OVC090 M11/M15 A3041 RMK AO1 11110 21160 57007
Loading
Personal Weather Stations






























Interactive Weather Map New forecast layout! Learn more

10-Day Weather Forecast

Advertisements
Track Severe Weather on mobile